sensor_id;sensor_type;location;lat;lon;timestamp;pressure;altitude;pressure_sealevel;temperature;humidity
30875;BME280;17581;43.222;27.924;2023-04-02T00:07:49;99471.13;;;13.18;65.80
30875;BME280;17581;43.222;27.924;2023-04-02T00:10:35;99476.88;;;13.15;66.13
30875;BME280;17581;43.222;27.924;2023-04-02T00:13:05;99484.47;;;13.11;66.23
30875;BME280;17581;43.222;27.924;2023-04-02T00:15:32;99467.41;;;13.02;66.41
30875;BME280;17581;43.222;27.924;2023-04-02T00:17:58;99462.88;;;13.11;66.30
30875;BME280;17581;43.222;27.924;2023-04-02T00:20:25;99468.44;;;13.09;66.02
30875;BME280;17581;43.222;27.924;2023-04-02T00:22:52;99469.75;;;12.89;65.85
30875;BME280;17581;43.222;27.924;2023-04-02T00:25:18;99467.06;;;12.89;66.22
30875;BME280;17581;43.222;27.924;2023-04-02T00:27:44;99470.06;;;12.78;66.58
30875;BME280;17581;43.222;27.924;2023-04-02T00:30:13;99468.38;;;12.85;66.10
30875;BME280;17581;43.222;27.924;2023-04-02T00:32:39;99474.47;;;12.79;65.74
30875;BME280;17581;43.222;27.924;2023-04-02T00:35:27;99485.91;;;12.81;65.47
30875;BME280;17581;43.222;27.924;2023-04-02T00:37:53;99488.94;;;12.78;65.41
30875;BME280;17581;43.222;27.924;2023-04-02T00:40:23;99489.59;;;12.72;65.48
30875;BME280;17581;43.222;27.924;2023-04-02T00:42:51;99485.56;;;12.76;65.03
30875;BME280;17581;43.222;27.924;2023-04-02T00:45:26;99466.31;;;12.55;64.78
30875;BME280;17581;43.222;27.924;2023-04-02T00:47:54;99470.03;;;12.54;64.84
30875;BME280;17581;43.222;27.924;2023-04-02T00:50:29;99490.59;;;12.47;65.86
30875;BME280;17581;43.222;27.924;2023-04-02T00:52:57;99481.47;;;12.48;65.63
30875;BME280;17581;43.222;27.924;2023-04-02T00:55:36;99477.44;;;12.44;65.75
30875;BME280;17581;43.222;27.924;2023-04-02T00:58:16;99475.06;;;12.41;65.85
30875;BME280;17581;43.222;27.924;2023-04-02T01:00:48;99474.03;;;12.34;65.86
30875;BME280;17581;43.222;27.924;2023-04-02T01:06:03;99498.28;;;12.26;66.45
30875;BME280;17581;43.222;27.924;2023-04-02T01:12:07;99479.34;;;12.18;66.64
30875;BME280;17581;43.222;27.924;2023-04-02T01:14:49;99491.16;;;12.17;66.89
30875;BME280;17581;43.222;27.924;2023-04-02T01:22:46;99485.72;;;12.09;67.37
30875;BME280;17581;43.222;27.924;2023-04-02T01:28:17;99482.22;;;12.16;67.23
30875;BME280;17581;43.222;27.924;2023-04-02T01:30:51;99486.97;;;12.22;67.21
30875;BME280;17581;43.222;27.924;2023-04-02T01:33:20;99481.72;;;12.13;67.62
30875;BME280;17581;43.222;27.924;2023-04-02T01:35:52;99477.81;;;12.07;67.17
30875;BME280;17581;43.222;27.924;2023-04-02T01:38:36;99499.25;;;12.17;67.28
30875;BME280;17581;43.222;27.924;2023-04-02T01:41:13;99479.13;;;12.03;67.26
30875;BME280;17581;43.222;27.924;2023-04-02T01:43:50;99484.41;;;12.13;67.54
30875;BME280;17581;43.222;27.924;2023-04-02T01:46:29;99496.22;;;12.20;67.33
30875;BME280;17581;43.222;27.924;2023-04-02T01:48:56;99492.50;;;12.21;66.90
30875;BME280;17581;43.222;27.924;2023-04-02T01:51:30;99486.97;;;12.22;67.04
30875;BME280;17581;43.222;27.924;2023-04-02T01:53:58;99476.50;;;12.19;67.09
30875;BME280;17581;43.222;27.924;2023-04-02T01:56:26;99478.84;;;12.14;66.98
30875;BME280;17581;43.222;27.924;2023-04-02T01:58:52;99479.03;;;12.21;66.80
30875;BME280;17581;43.222;27.924;2023-04-02T02:01:21;99485.78;;;12.25;66.85
30875;BME280;17581;43.222;27.924;2023-04-02T02:03:48;99475.34;;;12.30;66.81
30875;BME280;17581;43.222;27.924;2023-04-02T02:06:15;99493.88;;;12.25;66.42
30875;BME280;17581;43.222;27.924;2023-04-02T02:09:11;99478.03;;;12.14;66.93
30875;BME280;17581;43.222;27.924;2023-04-02T02:11:35;99482.69;;;12.12;66.97
30875;BME280;17581;43.222;27.924;2023-04-02T02:14:12;99494.50;;;12.11;67.32
30875;BME280;17581;43.222;27.924;2023-04-02T02:16:39;99488.94;;;12.12;67.11
30875;BME280;17581;43.222;27.924;2023-04-02T02:19:14;99488.97;;;12.20;67.17
30875;BME280;17581;43.222;27.924;2023-04-02T02:21:46;99491.84;;;12.19;66.58
30875;BME280;17581;43.222;27.924;2023-04-02T02:26:57;99473.81;;;12.19;66.72
30875;BME280;17581;43.222;27.924;2023-04-02T02:29:27;99487.81;;;12.23;66.44
30875;BME280;17581;43.222;27.924;2023-04-02T02:31:56;99496.06;;;12.29;66.28
30875;BME280;17581;43.222;27.924;2023-04-02T02:34:34;99501.31;;;12.31;66.37
30875;BME280;17581;43.222;27.924;2023-04-02T02:37:05;99496.25;;;12.28;66.57
30875;BME280;17581;43.222;27.924;2023-04-02T02:39:47;99504.00;;;12.31;66.44
30875;BME280;17581;43.222;27.924;2023-04-02T02:42:41;99507.06;;;12.36;66.34
30875;BME280;17581;43.222;27.924;2023-04-02T02:45:18;99507.56;;;12.31;66.50
30875;BME280;17581;43.222;27.924;2023-04-02T02:47:46;99504.69;;;12.33;66.33
30875;BME280;17581;43.222;27.924;2023-04-02T02:50:22;99517.88;;;12.44;65.93
30875;BME280;17581;43.222;27.924;2023-04-02T02:52:53;99509.81;;;12.52;66.09
30875;BME280;17581;43.222;27.924;2023-04-02T02:55:33;99515.06;;;12.53;65.66
30875;BME280;17581;43.222;27.924;2023-04-02T02:58:05;99519.59;;;12.53;65.43
30875;BME280;17581;43.222;27.924;2023-04-02T03:00:34;99516.56;;;12.56;65.57
30875;BME280;17581;43.222;27.924;2023-04-02T03:03:03;99521.63;;;12.59;65.16
30875;BME280;17581;43.222;27.924;2023-04-02T03:05:30;99524.66;;;12.64;65.27
30875;BME280;17581;43.222;27.924;2023-04-02T03:07:57;99530.91;;;12.65;65.23
30875;BME280;17581;43.222;27.924;2023-04-02T03:10:47;99519.94;;;12.58;65.17
30875;BME280;17581;43.222;27.924;2023-04-02T03:13:30;99537.50;;;12.78;64.94
30875;BME280;17581;43.222;27.924;2023-04-02T03:21:30;99542.78;;;13.04;64.23
30875;BME280;17581;43.222;27.924;2023-04-02T03:29:08;99539.13;;;13.13;63.65
30875;BME280;17581;43.222;27.924;2023-04-02T03:31:40;99543.31;;;13.07;63.67
30875;BME280;17581;43.222;27.924;2023-04-02T03:34:17;99537.44;;;13.12;63.49
30875;BME280;17581;43.222;27.924;2023-04-02T03:36:55;99534.38;;;13.15;63.09
30875;BME280;17581;43.222;27.924;2023-04-02T03:39:41;99535.91;;;13.09;63.53
30875;BME280;17581;43.222;27.924;2023-04-02T03:42:36;99526.81;;;13.11;63.65
30875;BME280;17581;43.222;27.924;2023-04-02T03:45:10;99519.72;;;13.09;63.53
30875;BME280;17581;43.222;27.924;2023-04-02T03:50:29;99522.41;;;13.09;63.46
30875;BME280;17581;43.222;27.924;2023-04-02T03:52:58;99519.84;;;12.92;63.87
30875;BME280;17581;43.222;27.924;2023-04-02T03:55:28;99523.19;;;12.94;63.73
30875;BME280;17581;43.222;27.924;2023-04-02T04:03:15;99553.06;;;12.92;64.64
30875;BME280;17581;43.222;27.924;2023-04-02T04:05:56;99549.38;;;12.93;64.15
30875;BME280;17581;43.222;27.924;2023-04-02T04:08:31;99540.25;;;12.86;64.64
30875;BME280;17581;43.222;27.924;2023-04-02T04:11:02;99550.00;;;12.87;64.53
30875;BME280;17581;43.222;27.924;2023-04-02T04:13:42;99564.19;;;12.97;64.62
30875;BME280;17581;43.222;27.924;2023-04-02T04:16:12;99575.69;;;13.07;64.47
30875;BME280;17581;43.222;27.924;2023-04-02T04:19:13;99568.16;;;13.11;64.11
30875;BME280;17581;43.222;27.924;2023-04-02T04:21:42;99556.78;;;12.91;64.96
30875;BME280;17581;43.222;27.924;2023-04-02T04:24:18;99561.69;;;13.04;64.81
30875;BME280;17581;43.222;27.924;2023-04-02T04:27:14;99563.41;;;13.13;64.44
30875;BME280;17581;43.222;27.924;2023-04-02T04:35:20;99575.56;;;13.33;64.09
30875;BME280;17581;43.222;27.924;2023-04-02T04:37:55;99562.78;;;13.35;63.70
30875;BME280;17581;43.222;27.924;2023-04-02T04:40:29;99571.72;;;13.36;63.82
30875;BME280;17581;43.222;27.924;2023-04-02T04:43:00;99572.06;;;13.41;63.46
30875;BME280;17581;43.222;27.924;2023-04-02T04:45:30;99585.22;;;13.44;63.35
30875;BME280;17581;43.222;27.924;2023-04-02T04:51:00;99589.94;;;13.42;62.74
30875;BME280;17581;43.222;27.924;2023-04-02T04:53:28;99580.31;;;13.31;62.86
30875;BME280;17581;43.222;27.924;2023-04-02T04:55:55;99587.41;;;13.40;63.08
30875;BME280;17581;43.222;27.924;2023-04-02T04:58:49;99580.97;;;13.33;62.93
30875;BME280;17581;43.222;27.924;2023-04-02T05:01:24;99589.44;;;13.38;63.12
30875;BME280;17581;43.222;27.924;2023-04-02T05:04:03;99602.94;;;13.46;62.92
30875;BME280;17581;43.222;27.924;2023-04-02T05:12:44;99606.81;;;13.44;63.17
30875;BME280;17581;43.222;27.924;2023-04-02T05:15:15;99602.25;;;13.36;63.17
30875;BME280;17581;43.222;27.924;2023-04-02T05:17:47;99621.03;;;13.54;63.11
30875;BME280;17581;43.222;27.924;2023-04-02T05:20:35;99620.66;;;13.65;62.72
30875;BME280;17581;43.222;27.924;2023-04-02T05:23:16;99618.66;;;13.75;62.52
30875;BME280;17581;43.222;27.924;2023-04-02T05:26:29;99623.34;;;13.89;62.06
30875;BME280;17581;43.222;27.924;2023-04-02T05:29:07;99619.63;;;13.82;61.83
30875;BME280;17581;43.222;27.924;2023-04-02T05:31:43;99627.75;;;13.90;61.99
30875;BME280;17581;43.222;27.924;2023-04-02T05:34:11;99614.38;;;14.05;61.73
30875;BME280;17581;43.222;27.924;2023-04-02T05:36:45;99614.91;;;14.08;61.55
30875;BME280;17581;43.222;27.924;2023-04-02T05:39:11;99621.59;;;14.29;61.06
30875;BME280;17581;43.222;27.924;2023-04-02T05:41:39;99614.19;;;14.39;60.85
30875;BME280;17581;43.222;27.924;2023-04-02T05:44:26;99602.97;;;14.50;60.15
30875;BME280;17581;43.222;27.924;2023-04-02T05:46:59;99618.50;;;14.56;60.17
30875;BME280;17581;43.222;27.924;2023-04-02T05:49:40;99616.84;;;14.55;60.18
30875;BME280;17581;43.222;27.924;2023-04-02T05:52:12;99625.59;;;14.57;59.75
30875;BME280;17581;43.222;27.924;2023-04-02T05:54:46;99623.44;;;14.52;59.43
30875;BME280;17581;43.222;27.924;2023-04-02T05:57:19;99616.88;;;14.39;59.74
30875;BME280;17581;43.222;27.924;2023-04-02T05:59:52;99620.03;;;14.50;59.35
30875;BME280;17581;43.222;27.924;2023-04-02T06:02:32;99630.03;;;14.50;59.49
30875;BME280;17581;43.222;27.924;2023-04-02T06:07:33;99646.84;;;14.76;59.27
30875;BME280;17581;43.222;27.924;2023-04-02T06:10:09;99646.06;;;14.98;59.15
30875;BME280;17581;43.222;27.924;2023-04-02T06:12:54;99634.19;;;15.07;58.96
30875;BME280;17581;43.222;27.924;2023-04-02T06:15:21;99632.44;;;15.14;58.58
30875;BME280;17581;43.222;27.924;2023-04-02T06:20:23;99640.34;;;15.55;57.39
30875;BME280;17581;43.222;27.924;2023-04-02T06:25:33;99641.03;;;15.94;55.83
30875;BME280;17581;43.222;27.924;2023-04-02T06:28:03;99639.50;;;16.14;55.67
30875;BME280;17581;43.222;27.924;2023-04-02T06:30:35;99646.06;;;16.34;55.25
30875;BME280;17581;43.222;27.924;2023-04-02T06:33:02;99648.91;;;16.56;54.80
30875;BME280;17581;43.222;27.924;2023-04-02T06:35:28;99642.63;;;16.70;53.92
30875;BME280;17581;43.222;27.924;2023-04-02T06:37:56;99651.06;;;16.75;53.55
30875;BME280;17581;43.222;27.924;2023-04-02T06:42:56;99632.31;;;16.95;52.91
30875;BME280;17581;43.222;27.924;2023-04-02T06:45:30;99637.00;;;16.86;52.84
30875;BME280;17581;43.222;27.924;2023-04-02T06:47:59;99644.28;;;17.00;52.72
30875;BME280;17581;43.222;27.924;2023-04-02T06:50:47;99650.78;;;16.99;52.52
30875;BME280;17581;43.222;27.924;2023-04-02T06:53:34;99645.22;;;17.07;52.13
30875;BME280;17581;43.222;27.924;2023-04-02T06:56:05;99657.13;;;17.06;51.96
30875;BME280;17581;43.222;27.924;2023-04-02T06:58:34;99643.25;;;17.01;51.92
30875;BME280;17581;43.222;27.924;2023-04-02T07:01:00;99649.75;;;16.85;52.18
30875;BME280;17581;43.222;27.924;2023-04-02T07:03:28;99655.44;;;16.76;52.47
30875;BME280;17581;43.222;27.924;2023-04-02T07:05:55;99651.72;;;16.62;52.71
30875;BME280;17581;43.222;27.924;2023-04-02T07:08:21;99659.22;;;16.60;53.20
30875;BME280;17581;43.222;27.924;2023-04-02T07:10:47;99656.69;;;16.59;53.71
30875;BME280;17581;43.222;27.924;2023-04-02T07:13:21;99656.59;;;16.67;53.28
30875;BME280;17581;43.222;27.924;2023-04-02T07:15:49;99649.22;;;16.75;53.21
30875;BME280;17581;43.222;27.924;2023-04-02T07:18:28;99651.91;;;16.90;53.01
30875;BME280;17581;43.222;27.924;2023-04-02T07:20:55;99655.06;;;17.08;52.75
30875;BME280;17581;43.222;27.924;2023-04-02T07:23:21;99669.78;;;16.99;52.60
30875;BME280;17581;43.222;27.924;2023-04-02T07:25:48;99663.25;;;16.94;52.24
30875;BME280;17581;43.222;27.924;2023-04-02T07:28:13;99664.66;;;16.75;52.62
30875;BME280;17581;43.222;27.924;2023-04-02T07:30:39;99679.34;;;16.80;52.92
30875;BME280;17581;43.222;27.924;2023-04-02T07:33:05;99683.56;;;16.83;52.72
30875;BME280;17581;43.222;27.924;2023-04-02T07:35:31;99688.97;;;16.83;52.62
30875;BME280;17581;43.222;27.924;2023-04-02T07:37:56;99689.94;;;16.90;52.51
30875;BME280;17581;43.222;27.924;2023-04-02T07:40:22;99687.59;;;16.72;52.39
30875;BME280;17581;43.222;27.924;2023-04-02T07:42:48;99689.59;;;16.41;53.54
30875;BME280;17581;43.222;27.924;2023-04-02T07:45:14;99701.56;;;16.47;53.62
30875;BME280;17581;43.222;27.924;2023-04-02T07:47:41;99687.53;;;16.43;53.50
30875;BME280;17581;43.222;27.924;2023-04-02T07:50:07;99707.66;;;16.49;53.58
30875;BME280;17581;43.222;27.924;2023-04-02T07:52:42;99709.88;;;16.45;54.04
30875;BME280;17581;43.222;27.924;2023-04-02T07:55:12;99714.28;;;16.46;53.91
30875;BME280;17581;43.222;27.924;2023-04-02T07:57:57;99710.44;;;16.41;54.13
30875;BME280;17581;43.222;27.924;2023-04-02T08:00:24;99727.25;;;16.21;54.51
30875;BME280;17581;43.222;27.924;2023-04-02T08:02:51;99727.84;;;16.09;55.00
30875;BME280;17581;43.222;27.924;2023-04-02T08:05:17;99730.13;;;16.05;55.06
30875;BME280;17581;43.222;27.924;2023-04-02T08:07:43;99732.16;;;16.03;55.30
30875;BME280;17581;43.222;27.924;2023-04-02T08:10:11;99723.31;;;15.87;55.66
30875;BME280;17581;43.222;27.924;2023-04-02T08:12:37;99711.22;;;15.66;55.98
30875;BME280;17581;43.222;27.924;2023-04-02T08:15:04;99732.38;;;15.71;56.40
30875;BME280;17581;43.222;27.924;2023-04-02T08:17:36;99732.41;;;15.63;56.88
30875;BME280;17581;43.222;27.924;2023-04-02T08:20:01;99732.41;;;15.63;56.56
30875;BME280;17581;43.222;27.924;2023-04-02T08:22:28;99743.63;;;15.60;56.84
30875;BME280;17581;43.222;27.924;2023-04-02T08:24:54;99736.47;;;15.67;56.96
30875;BME280;17581;43.222;27.924;2023-04-02T08:27:21;99742.88;;;15.74;56.41
30875;BME280;17581;43.222;27.924;2023-04-02T08:29:47;99736.69;;;15.57;57.07
30875;BME280;17581;43.222;27.924;2023-04-02T08:32:14;99742.53;;;15.69;57.02
30875;BME280;17581;43.222;27.924;2023-04-02T08:34:43;99736.53;;;15.82;56.24
30875;BME280;17581;43.222;27.924;2023-04-02T08:37:12;99734.38;;;15.77;56.24
30875;BME280;17581;43.222;27.924;2023-04-02T08:39:38;99732.50;;;16.00;56.06
30875;BME280;17581;43.222;27.924;2023-04-02T08:42:14;99747.72;;;16.24;55.27
30875;BME280;17581;43.222;27.924;2023-04-02T08:47:33;99737.97;;;16.38;53.49
30875;BME280;17581;43.222;27.924;2023-04-02T08:50:20;99725.63;;;16.50;53.45
30875;BME280;17581;43.222;27.924;2023-04-02T08:52:46;99726.25;;;16.60;52.98
30875;BME280;17581;43.222;27.924;2023-04-02T09:00:55;99758.09;;;16.95;52.73
30875;BME280;17581;43.222;27.924;2023-04-02T09:05:54;99767.66;;;17.20;52.01
30875;BME280;17581;43.222;27.924;2023-04-02T09:08:24;99742.06;;;17.29;51.44
30875;BME280;17581;43.222;27.924;2023-04-02T09:13:27;99755.72;;;17.51;51.08
30875;BME280;17581;43.222;27.924;2023-04-02T09:16:05;99754.81;;;17.58;50.68
30875;BME280;17581;43.222;27.924;2023-04-02T09:18:32;99756.88;;;17.56;50.66
30875;BME280;17581;43.222;27.924;2023-04-02T09:21:00;99766.97;;;17.62;50.73
30875;BME280;17581;43.222;27.924;2023-04-02T09:23:27;99752.19;;;17.35;51.42
30875;BME280;17581;43.222;27.924;2023-04-02T09:25:53;99778.06;;;17.31;51.66
30875;BME280;17581;43.222;27.924;2023-04-02T09:28:20;99777.41;;;17.29;52.27
30875;BME280;17581;43.222;27.924;2023-04-02T09:31:04;99763.59;;;17.31;52.47
30875;BME280;17581;43.222;27.924;2023-04-02T09:33:47;99763.31;;;17.40;52.31
30875;BME280;17581;43.222;27.924;2023-04-02T09:36:32;99759.66;;;17.48;52.63
30875;BME280;17581;43.222;27.924;2023-04-02T09:39:18;99762.81;;;17.81;51.94
30875;BME280;17581;43.222;27.924;2023-04-02T09:41:44;99759.31;;;17.87;51.50
30875;BME280;17581;43.222;27.924;2023-04-02T09:44:30;99762.69;;;17.89;51.22
30875;BME280;17581;43.222;27.924;2023-04-02T09:47:22;99761.00;;;17.88;50.94
30875;BME280;17581;43.222;27.924;2023-04-02T09:49:49;99759.31;;;17.87;50.79
30875;BME280;17581;43.222;27.924;2023-04-02T09:52:28;99763.22;;;17.99;51.11
30875;BME280;17581;43.222;27.924;2023-04-02T09:55:23;99774.81;;;18.29;50.39
30875;BME280;17581;43.222;27.924;2023-04-02T09:58:06;99773.31;;;18.47;49.99
30875;BME280;17581;43.222;27.924;2023-04-02T10:00:32;99754.09;;;18.49;49.32
30875;BME280;17581;43.222;27.924;2023-04-02T10:03:28;99770.66;;;18.54;49.23
30875;BME280;17581;43.222;27.924;2023-04-02T10:08:31;99755.53;;;18.73;48.76
30875;BME280;17581;43.222;27.924;2023-04-02T10:10:59;99764.28;;;18.96;48.36
30875;BME280;17581;43.222;27.924;2023-04-02T10:13:29;99746.97;;;19.10;47.79
30875;BME280;17581;43.222;27.924;2023-04-02T10:16:03;99748.28;;;19.21;47.33
30875;BME280;17581;43.222;27.924;2023-04-02T10:21:07;99758.59;;;19.25;47.42
30875;BME280;17581;43.222;27.924;2023-04-02T10:23:34;99757.16;;;19.29;47.45
30875;BME280;17581;43.222;27.924;2023-04-02T10:26:11;99782.38;;;19.38;47.31
30875;BME280;17581;43.222;27.924;2023-04-02T10:31:18;99782.63;;;19.15;47.81
30875;BME280;17581;43.222;27.924;2023-04-02T10:33:50;99793.44;;;19.02;48.04
30875;BME280;17581;43.222;27.924;2023-04-02T10:36:20;99798.44;;;18.92;48.62
30875;BME280;17581;43.222;27.924;2023-04-02T10:39:03;99780.00;;;18.94;48.31
30875;BME280;17581;43.222;27.924;2023-04-02T10:55:36;99828.25;;;19.00;48.75
30875;BME280;17581;43.222;27.924;2023-04-02T10:58:16;99797.63;;;18.98;48.56
30875;BME280;17581;43.222;27.924;2023-04-02T11:00:45;99819.56;;;19.18;48.47
30875;BME280;17581;43.222;27.924;2023-04-02T11:03:51;99810.84;;;19.29;47.86
30875;BME280;17581;43.222;27.924;2023-04-02T11:06:22;99809.59;;;19.31;47.63
30875;BME280;17581;43.222;27.924;2023-04-02T11:08:51;99813.56;;;19.29;47.47
30875;BME280;17581;43.222;27.924;2023-04-02T11:11:21;99807.03;;;19.23;47.41
30875;BME280;17581;43.222;27.924;2023-04-02T11:16:43;99813.88;;;18.85;48.22
30875;BME280;17581;43.222;27.924;2023-04-02T11:21:53;99813.94;;;18.91;48.30
30875;BME280;17581;43.222;27.924;2023-04-02T11:24:34;99812.63;;;18.87;47.99
30875;BME280;17581;43.222;27.924;2023-04-02T11:38:01;99811.16;;;19.13;46.19
30875;BME280;17581;43.222;27.924;2023-04-02T11:40:50;99817.00;;;19.10;46.19
30875;BME280;17581;43.222;27.924;2023-04-02T11:46:05;99814.31;;;19.16;46.59
30875;BME280;17581;43.222;27.924;2023-04-02T11:48:34;99817.44;;;19.41;46.06
30875;BME280;17581;43.222;27.924;2023-04-02T11:53:48;99818.22;;;19.69;45.66
30875;BME280;17581;43.222;27.924;2023-04-02T11:56:29;99813.91;;;20.01;44.04
30875;BME280;17581;43.222;27.924;2023-04-02T12:02:04;99811.72;;;20.37;42.66
30875;BME280;17581;43.222;27.924;2023-04-02T12:07:27;99820.75;;;20.31;41.80
30875;BME280;17581;43.222;27.924;2023-04-02T12:12:35;99820.69;;;20.18;42.11
30875;BME280;17581;43.222;27.924;2023-04-02T12:15:29;99823.44;;;20.18;41.82
30875;BME280;17581;43.222;27.924;2023-04-02T12:18:13;99828.88;;;20.12;42.10
30875;BME280;17581;43.222;27.924;2023-04-02T12:20:39;99820.06;;;20.16;42.30
30875;BME280;17581;43.222;27.924;2023-04-02T12:23:05;99813.56;;;20.17;42.80
30875;BME280;17581;43.222;27.924;2023-04-02T12:25:36;99819.22;;;20.22;42.32
30875;BME280;17581;43.222;27.924;2023-04-02T12:28:25;99822.94;;;19.95;42.96
30875;BME280;17581;43.222;27.924;2023-04-02T12:31:04;99814.94;;;19.87;43.04
30875;BME280;17581;43.222;27.924;2023-04-02T12:33:37;99824.16;;;19.86;44.46
30875;BME280;17581;43.222;27.924;2023-04-02T12:36:21;99827.06;;;19.78;45.34
30875;BME280;17581;43.222;27.924;2023-04-02T12:38:53;99823.69;;;19.69;45.77
30875;BME280;17581;43.222;27.924;2023-04-02T12:41:27;99828.22;;;19.55;46.49
30875;BME280;17581;43.222;27.924;2023-04-02T12:44:02;99839.03;;;19.42;47.47
30875;BME280;17581;43.222;27.924;2023-04-02T12:46:30;99841.13;;;19.40;47.54
30875;BME280;17581;43.222;27.924;2023-04-02T12:51:44;99835.56;;;19.27;48.00
30875;BME280;17581;43.222;27.924;2023-04-02T12:54:15;99844.19;;;19.31;48.15
30875;BME280;17581;43.222;27.924;2023-04-02T12:56:47;99847.75;;;19.31;48.65
30875;BME280;17581;43.222;27.924;2023-04-02T12:59:34;99846.47;;;19.27;48.79
30875;BME280;17581;43.222;27.924;2023-04-02T13:02:13;99837.44;;;19.20;48.54
30875;BME280;17581;43.222;27.924;2023-04-02T13:05:07;99847.75;;;19.31;47.97
30875;BME280;17581;43.222;27.924;2023-04-02T13:07:33;99850.28;;;19.33;48.09
30875;BME280;17581;43.222;27.924;2023-04-02T13:10:00;99846.88;;;19.24;48.33
30875;BME280;17581;43.222;27.924;2023-04-02T13:12:31;99852.72;;;19.21;48.20
30875;BME280;17581;43.222;27.924;2023-04-02T13:14:58;99847.94;;;19.23;47.93
30875;BME280;17581;43.222;27.924;2023-04-02T13:20:29;99824.56;;;19.83;47.16
30875;BME280;17581;43.222;27.924;2023-04-02T13:22:57;99813.56;;;20.17;45.60
30875;BME280;17581;43.222;27.924;2023-04-02T13:25:29;99813.44;;;20.51;45.23
30875;BME280;17581;43.222;27.924;2023-04-02T13:27:55;99826.25;;;20.84;43.53
30875;BME280;17581;43.222;27.924;2023-04-02T13:30:24;99820.16;;;21.08;43.12
30875;BME280;17581;43.222;27.924;2023-04-02T13:32:49;99830.03;;;21.35;42.78
30875;BME280;17581;43.222;27.924;2023-04-02T13:35:15;99808.31;;;21.47;41.97
30875;BME280;17581;43.222;27.924;2023-04-02T13:37:40;99811.63;;;21.62;41.93
30875;BME280;17581;43.222;27.924;2023-04-02T13:40:06;99803.22;;;21.57;41.40
30875;BME280;17581;43.222;27.924;2023-04-02T13:42:32;99816.22;;;21.68;41.67
30875;BME280;17581;43.222;27.924;2023-04-02T13:44:58;99806.97;;;21.76;41.49
30875;BME280;17581;43.222;27.924;2023-04-02T13:47:23;99819.78;;;21.82;41.50
30875;BME280;17581;43.222;27.924;2023-04-02T13:49:48;99823.22;;;21.57;41.18
30875;BME280;17581;43.222;27.924;2023-04-02T13:52:14;99823.31;;;21.31;41.40
30875;BME280;17581;43.222;27.924;2023-04-02T13:54:51;99820.38;;;21.13;41.91
30875;BME280;17581;43.222;27.924;2023-04-02T13:57:19;99818.88;;;21.04;42.35
30875;BME280;17581;43.222;27.924;2023-04-02T13:59:44;99820.56;;;21.05;42.34
30875;BME280;17581;43.222;27.924;2023-04-02T14:02:14;99821.63;;;21.10;42.47
30875;BME280;17581;43.222;27.924;2023-04-02T14:04:44;99824.19;;;21.12;42.77
30875;BME280;17581;43.222;27.924;2023-04-02T14:10:24;99819.97;;;21.09;43.09
30875;BME280;17581;43.222;27.924;2023-04-02T14:12:57;99816.78;;;21.32;42.87
30875;BME280;17581;43.222;27.924;2023-04-02T14:29:15;99831.47;;;21.44;42.17
30875;BME280;17581;43.222;27.924;2023-04-02T14:37:38;99824.34;;;21.37;42.01
30875;BME280;17581;43.222;27.924;2023-04-02T14:40:20;99818.06;;;21.23;41.88
30875;BME280;17581;43.222;27.924;2023-04-02T14:48:04;99826.06;;;20.79;42.81
30875;BME280;17581;43.222;27.924;2023-04-02T14:50:38;99826.88;;;20.59;43.25
30875;BME280;17581;43.222;27.924;2023-04-02T14:53:37;99829.81;;;20.64;43.02
30875;BME280;17581;43.222;27.924;2023-04-02T14:56:06;99829.41;;;20.54;43.32
30875;BME280;17581;43.222;27.924;2023-04-02T14:58:40;99820.97;;;20.43;43.73
30875;BME280;17581;43.222;27.924;2023-04-02T15:01:20;99831.28;;;20.47;44.16
30875;BME280;17581;43.222;27.924;2023-04-02T15:03:55;99816.78;;;20.53;43.73
30875;BME280;17581;43.222;27.924;2023-04-02T15:06:26;99825.63;;;20.69;43.75
30875;BME280;17581;43.222;27.924;2023-04-02T15:09:02;99818.28;;;20.76;43.24
30875;BME280;17581;43.222;27.924;2023-04-02T15:11:35;99824.78;;;20.75;42.85
30875;BME280;17581;43.222;27.924;2023-04-02T15:16:36;99816.16;;;20.58;42.55
30875;BME280;17581;43.222;27.924;2023-04-02T15:19:03;99822.69;;;20.50;42.83
30875;BME280;17581;43.222;27.924;2023-04-02T15:24:52;99834.19;;;20.26;44.25
30875;BME280;17581;43.222;27.924;2023-04-02T15:32:40;99854.25;;;20.12;44.55
30875;BME280;17581;43.222;27.924;2023-04-02T15:35:14;99869.16;;;20.09;44.85
30875;BME280;17581;43.222;27.924;2023-04-02T15:51:58;99874.81;;;19.61;45.72
30875;BME280;17581;43.222;27.924;2023-04-02T15:54:44;99889.13;;;19.63;45.81
30875;BME280;17581;43.222;27.924;2023-04-02T16:00:18;99860.84;;;19.42;46.47
30875;BME280;17581;43.222;27.924;2023-04-02T16:10:40;99885.22;;;19.44;46.68
30875;BME280;17581;43.222;27.924;2023-04-02T16:15:57;99896.63;;;19.33;46.62
30875;BME280;17581;43.222;27.924;2023-04-02T16:18:36;99882.53;;;19.23;46.83
30875;BME280;17581;43.222;27.924;2023-04-02T16:21:02;99878.66;;;19.11;47.50
30875;BME280;17581;43.222;27.924;2023-04-02T16:23:36;99901.69;;;19.08;47.76
30875;BME280;17581;43.222;27.924;2023-04-02T16:26:22;99903.81;;;19.13;47.90
30875;BME280;17581;43.222;27.924;2023-04-02T16:31:57;99903.66;;;19.14;48.15
30875;BME280;17581;43.222;27.924;2023-04-02T16:36:59;99904.63;;;19.07;48.31
30875;BME280;17581;43.222;27.924;2023-04-02T16:50:18;99924.78;;;18.13;51.36
30875;BME280;17581;43.222;27.924;2023-04-02T16:58:09;99944.50;;;16.96;55.41
30875;BME280;17581;43.222;27.924;2023-04-02T17:00:53;99937.00;;;16.53;57.20
30875;BME280;17581;43.222;27.924;2023-04-02T17:09:23;99963.44;;;15.89;59.51
30875;BME280;17581;43.222;27.924;2023-04-02T17:15:01;99962.34;;;15.59;61.08
30875;BME280;17581;43.222;27.924;2023-04-02T17:17:28;99967.94;;;15.58;60.84